METAR Data
IDs: Format: Raw Decoded Include TAF

Data at: 1350 UTC 20 Oct 2021

LKPR 201330Z 22018KT CAVOK 22/04 Q1011 NOSIG